Vingaren — OZ2131 — position and weather

sailwx.info

Track history (hours):
 
Tides and Currents Weather Stations Pressure Air Temp Water Temp Dewpoint Dewpoint Depression Visibility Wind Speed Wind Dir Waves Ship Positions

Vingaren

Last reported at 2016-Jun-29 14:34 UTC. Time now 2016-Jun-29 14:42 UTC.
Position N 55°16' E 012°54'.

Length 89 m; draft 5.2 m.

Type: Cargo ship. MMSI: 231844000.

Date/timePositionNaut miles runAvg speedWind from/ knotsBaromVisibWave heightAir tempDewpointWater temp
2016-Jun-29 14:34N 55°16' E 012°54'1010.1
2016-Jun-29 13:33N 55°15' E 013°12'1010.1
2016-Jun-29 12:33N 55°15' E 013°30'1010.4
2016-Jun-29 11:33N 55°14' E 013°48'1110.6
2016-Jun-29 10:33N 55°14' E 014°07'9 9.3
2016-Jun-29 09:33N 55°18' E 014°22'1010.3
2016-Jun-29 08:34N 55°25' E 014°34'1010.0
2016-Jun-29 07:33N 55°31' E 014°49'1010.0
2016-Jun-29 06:34N 55°35' E 015°05'1010.0
2016-Jun-29 05:33N 55°41' E 015°20'2210.7
2016-Jun-29 03:27N 55°52' E 015°55'11610.2
2016-Jun-28 16:05N 57°02' E 018°42'610.2
2016-Jun-28 15:32N 57°06' E 018°48'15810.3
2016-Jun-28 00:18N 59°05' E 022°03'810.4
2016-Jun-27 23:33N 59°11' E 022°13'10 9.8
2016-Jun-27 22:33N 59°16' E 022°30'1010.0
2016-Jun-27 21:34N 59°20' E 022°48'1010.0
2016-Jun-27 20:34N 59°23' E 023°06'10 9.9
2016-Jun-27 19:34N 59°27' E 023°24'10 9.9
2016-Jun-27 18:33N 59°31' E 023°42'10 9.7
2016-Jun-27 17:33N 59°34' E 024°00'19 9.5
2016-Jun-27 15:33N 59°41' E 024°35'60 2.5
2016-Jun-26 15:10N 59°32' E 026°33'0 0.0
2016-Jun-26 10:22N 59°32' E 026°33'0 0.0
2016-Jun-26 09:25N 59°32' E 026°33'0 0.0
2016-Jun-26 03:03N 59°32' E 026°33'0 0.1
2016-Jun-26 02:26N 59°32' E 026°33'3 3.1
2016-Jun-26 01:25N 59°34' E 026°30'0 0.0
2016-Jun-25 23:13N 59°34' E 026°31'0 0.0
2016-Jun-25 22:10N 59°34' E 026°31'0 0.0
2016-Jun-25 20:31N 59°34' E 026°31'0 0.0
2016-Jun-25 19:13N 59°34' E 026°31'0 0.0
2016-Jun-25 17:31N 59°34' E 026°30'0 0.0
2016-Jun-25 16:19N 59°34' E 026°30'5 0.2
2016-Jun-24 16:33N 59°39' E 026°27'57 9.5
2016-Jun-24 10:30N 59°45' E 024°34'1410.2
2016-Jun-24 09:10N 59°41' E 024°08'610.3
2016-Jun-24 08:33N 59°39' E 023°56'1010.3
2016-Jun-24 07:33N 59°36' E 023°37'3210.2
2016-Jun-24 04:24N 59°25' E 022°37'1010.2
2016-Jun-24 03:25N 59°19' E 022°21'9 9.7
2016-Jun-24 02:32N 59°18' E 022°04'1010.4
2016-Jun-24 01:33N 59°20' E 021°45'1010.4
2016-Jun-24 00:33N 59°22' E 021°25'  
2016-Jun-21 15:04N 59°36' E 020°54'910.0
2016-Jun-21 14:11N 59°35' E 021°11'6 9.8
2016-Jun-21 13:33N 59°35' E 021°23'10 9.6
2016-Jun-21 12:33N 59°35' E 021°42'10 9.7
2016-Jun-21 11:33N 59°35' E 022°01'10 9.7
2016-Jun-21 10:32N 59°36' E 022°21'12 9.8
2016-Jun-21 09:17N 59°38' E 022°45'810.1
2016-Jun-21 08:27N 59°38' E 023°01'1010.7
2016-Jun-21 07:33N 59°40' E 023°20'1010.2
2016-Jun-21 06:33N 59°42' E 023°40'2410.2
2016-Jun-21 04:14N 59°47' E 024°26'710.1
2016-Jun-21 03:34N 59°49' E 024°39'3110.2
2016-Jun-21 00:33N 59°55' E 025°39'10 9.9
2016-Jun-20 23:33N 59°57' E 025°58'10 9.9
2016-Jun-20 22:31N 59°59' E 026°18'10 9.7
2016-Jun-20 21:29N 60°01' E 026°38'9 9.8
2016-Jun-20 20:34N 59°60' E 026°56'9 9.3
2016-Jun-20 19:34N 60°02' E 027°14'28 9.2
2016-Jun-20 16:33N 60°09' E 028°07'10 9.7
2016-Jun-20 15:34N 60°05' E 028°25'10 9.8
2016-Jun-20 14:33N 60°03' E 028°44'1010.0
2016-Jun-20 13:34N 60°03' E 029°04'13 9.6
2016-Jun-20 12:10N 60°01' E 029°31'6 9.9
2016-Jun-20 11:33N 59°59' E 029°42'10 9.8
2016-Jun-20 10:33N 59°55' E 030°00'7 7.1
2016-Jun-20 09:32N 59°53' E 030°14'0 0.1
2016-Jun-20 08:23N 59°53' E 030°14'0 0.0
2016-Jun-20 07:32N 59°53' E 030°14'0 0.0
2016-Jun-20 06:32N 59°53' E 030°14'0 0.0
2016-Jun-20 05:32N 59°53' E 030°14'0 0.0
2016-Jun-20 04:32N 59°53' E 030°14'0 0.0
2016-Jun-20 03:32N 59°53' E 030°14'0 0.0
2016-Jun-20 02:32N 59°53' E 030°14'0 0.0
2016-Jun-20 01:32N 59°53' E 030°14'0 0.0
2016-Jun-20 00:32N 59°53' E 030°14'0 0.0
2016-Jun-19 23:32N 59°53' E 030°14'0 0.0
2016-Jun-19 22:32N 59°53' E 030°14'0 0.0
2016-Jun-19 21:32N 59°53' E 030°14'0 0.0
2016-Jun-19 20:32N 59°53' E 030°14'0 0.0
2016-Jun-19 19:32N 59°53' E 030°14'0 0.0
2016-Jun-19 18:32N 59°53' E 030°14'0 0.0
2016-Jun-19 17:29N 59°53' E 030°14'0 0.0
2016-Jun-19 16:32N 59°53' E 030°14'0 0.0
2016-Jun-19 15:31N 59°53' E 030°14'  
Track history (hours):
 
Tides and Currents Weather Stations Pressure Air Temp Water Temp Dewpoint Dewpoint Depression Visibility Wind Speed Wind Dir Waves Ship Positions

Vingaren

Last reported at 2016-Jun-29 14:34 UTC. Time now 2016-Jun-29 14:42 UTC.
Position N 55°16' E 012°54'.

Length 89 m; draft 5.2 m.

Type: Cargo ship. MMSI: 231844000.

Date/timePositionNaut miles runAvg speedWind from/ knotsBaromVisibWave heightAir tempDewpointWater temp
2016-Jun-29 14:34N 55°16' E 012°54'1010.1
2016-Jun-29 13:33N 55°15' E 013°12'1010.1
2016-Jun-29 12:33N 55°15' E 013°30'1010.4
2016-Jun-29 11:33N 55°14' E 013°48'1110.6
2016-Jun-29 10:33N 55°14' E 014°07'9 9.3
2016-Jun-29 09:33N 55°18' E 014°22'1010.3
2016-Jun-29 08:34N 55°25' E 014°34'1010.0
2016-Jun-29 07:33N 55°31' E 014°49'1010.0
2016-Jun-29 06:34N 55°35' E 015°05'1010.0
2016-Jun-29 05:33N 55°41' E 015°20'2210.7
2016-Jun-29 03:27N 55°52' E 015°55'11610.2
2016-Jun-28 16:05N 57°02' E 018°42'610.2
2016-Jun-28 15:32N 57°06' E 018°48'15810.3
2016-Jun-28 00:18N 59°05' E 022°03'810.4
2016-Jun-27 23:33N 59°11' E 022°13'10 9.8
2016-Jun-27 22:33N 59°16' E 022°30'1010.0
2016-Jun-27 21:34N 59°20' E 022°48'1010.0
2016-Jun-27 20:34N 59°23' E 023°06'10 9.9
2016-Jun-27 19:34N 59°27' E 023°24'10 9.9
2016-Jun-27 18:33N 59°31' E 023°42'10 9.7
2016-Jun-27 17:33N 59°34' E 024°00'19 9.5
2016-Jun-27 15:33N 59°41' E 024°35'60 2.5
2016-Jun-26 15:10N 59°32' E 026°33'0 0.0
2016-Jun-26 10:22N 59°32' E 026°33'0 0.0
2016-Jun-26 09:25N 59°32' E 026°33'0 0.0
2016-Jun-26 03:03N 59°32' E 026°33'0 0.1
2016-Jun-26 02:26N 59°32' E 026°33'3 3.1
2016-Jun-26 01:25N 59°34' E 026°30'0 0.0
2016-Jun-25 23:13N 59°34' E 026°31'0 0.0
2016-Jun-25 22:10N 59°34' E 026°31'0 0.0
2016-Jun-25 20:31N 59°34' E 026°31'0 0.0
2016-Jun-25 19:13N 59°34' E 026°31'0 0.0
2016-Jun-25 17:31N 59°34' E 026°30'0 0.0
2016-Jun-25 16:19N 59°34' E 026°30'5 0.2
2016-Jun-24 16:33N 59°39' E 026°27'57 9.5
2016-Jun-24 10:30N 59°45' E 024°34'1410.2
2016-Jun-24 09:10N 59°41' E 024°08'610.3
2016-Jun-24 08:33N 59°39' E 023°56'1010.3
2016-Jun-24 07:33N 59°36' E 023°37'3210.2
2016-Jun-24 04:24N 59°25' E 022°37'1010.2
2016-Jun-24 03:25N 59°19' E 022°21'9 9.7
2016-Jun-24 02:32N 59°18' E 022°04'1010.4
2016-Jun-24 01:33N 59°20' E 021°45'1010.4
2016-Jun-24 00:33N 59°22' E 021°25'  
2016-Jun-21 15:04N 59°36' E 020°54'910.0
2016-Jun-21 14:11N 59°35' E 021°11'6 9.8
2016-Jun-21 13:33N 59°35' E 021°23'10 9.6
2016-Jun-21 12:33N 59°35' E 021°42'10 9.7
2016-Jun-21 11:33N 59°35' E 022°01'10 9.7
2016-Jun-21 10:32N 59°36' E 022°21'12 9.8
2016-Jun-21 09:17N 59°38' E 022°45'810.1
2016-Jun-21 08:27N 59°38' E 023°01'1010.7
2016-Jun-21 07:33N 59°40' E 023°20'1010.2
2016-Jun-21 06:33N 59°42' E 023°40'2410.2
2016-Jun-21 04:14N 59°47' E 024°26'710.1
2016-Jun-21 03:34N 59°49' E 024°39'3110.2
2016-Jun-21 00:33N 59°55' E 025°39'10 9.9
2016-Jun-20 23:33N 59°57' E 025°58'10 9.9
2016-Jun-20 22:31N 59°59' E 026°18'10 9.7
2016-Jun-20 21:29N 60°01' E 026°38'9 9.8
2016-Jun-20 20:34N 59°60' E 026°56'9 9.3
2016-Jun-20 19:34N 60°02' E 027°14'28 9.2
2016-Jun-20 16:33N 60°09' E 028°07'10 9.7
2016-Jun-20 15:34N 60°05' E 028°25'10 9.8
2016-Jun-20 14:33N 60°03' E 028°44'1010.0
2016-Jun-20 13:34N 60°03' E 029°04'13 9.6
2016-Jun-20 12:10N 60°01' E 029°31'6 9.9
2016-Jun-20 11:33N 59°59' E 029°42'10 9.8
2016-Jun-20 10:33N 59°55' E 030°00'7 7.1
2016-Jun-20 09:32N 59°53' E 030°14'0 0.1
2016-Jun-20 08:23N 59°53' E 030°14'0 0.0
2016-Jun-20 07:32N 59°53' E 030°14'0 0.0
2016-Jun-20 06:32N 59°53' E 030°14'0 0.0
2016-Jun-20 05:32N 59°53' E 030°14'0 0.0
2016-Jun-20 04:32N 59°53' E 030°14'0 0.0
2016-Jun-20 03:32N 59°53' E 030°14'0 0.0
2016-Jun-20 02:32N 59°53' E 030°14'0 0.0
2016-Jun-20 01:32N 59°53' E 030°14'0 0.0
2016-Jun-20 00:32N 59°53' E 030°14'0 0.0
2016-Jun-19 23:32N 59°53' E 030°14'0 0.0
2016-Jun-19 22:32N 59°53' E 030°14'0 0.0
2016-Jun-19 21:32N 59°53' E 030°14'0 0.0
2016-Jun-19 20:32N 59°53' E 030°14'0 0.0
2016-Jun-19 19:32N 59°53' E 030°14'0 0.0
2016-Jun-19 18:32N 59°53' E 030°14'0 0.0
2016-Jun-19 17:29N 59°53' E 030°14'0 0.0
2016-Jun-19 16:32N 59°53' E 030°14'0 0.0
2016-Jun-19 15:31N 59°53' E 030°14'  

Dump ship's entire track history